Omega, Louisiana
Current Conditions -  °F | °C
As of 12:53 PM on Thursday 23 Oct 2014 (Local Time) from KTVR Reporting Station
Clear Clear  
Wind Chill: 67°   Ceiling: Unl
Heat Index: 67°   Visibility: 10mi
Dew Point: 45°   Wind: 6mph
Humidity: 45%   Direction: 130°SE
Pressure: 30.15"   Gusts: NA
Location:  32.5752°N, 91.2825°W
Report Text: KTVR 231753Z AUTO 13005KT 10SM CLR 19/07 A3015 RMK AO2 SLP215 6//// T01940072 58013
Loading
Personal Weather Stations






























Interactive Weather Map
Tropical Storm Tracking
New forecast layout! Learn more

10-Day Weather Forecast

Advertisements
Track Severe Weather on mobile